Time;durP1;ratioP1;P1;durP2;ratioP2;P2;SDS_P1;SDS_P2;PMS_P1;PMS_P2;Temp;Humidity;BMP_temperature;BMP_pressure;BME280_temperature;BME280_humidity;BME280_pressure;Samples;Min_cycle;Max_cycle;Signal;HPM_P1;HPM_P2
2023/07/18 00:00:57;;;;;;;;;;;;;;;;;;4997343;28;20192;-91
2023/07/18 00:03:22;;;;;;;;;;;;;;;;;;4996924;28;19922;-93
2023/07/18 00:05:48;;;;;;;;;;;;;;;;;;4980784;28;19922;-93
2023/07/18 00:08:14;;;;;;;;;;;;;;;;;;4980760;28;19922;-93
2023/07/18 00:10:40;;;;;;;;;;;;;;;;;;4980490;28;20015;-91
2023/07/18 00:13:07;;;;;;;;;;;;;;;;;;4997357;28;19921;-93
2023/07/18 00:15:33;;;;;;;;;;;;;;;;;;5014471;28;20416;-92
2023/07/18 00:18:01;;;;;;;;;;;;;;;;;;4996805;28;19921;-93
2023/07/18 00:20:27;;;;;;;;;;;;;;;;;;4981000;28;19921;-93
2023/07/18 00:22:53;;;;;;;;;;;;;;;;;;4980452;28;19928;-93
2023/07/18 00:25:19;;;;;;;;;;;;;;;;;;4996862;28;19921;-94
2023/07/18 00:27:45;;;;;;;;;;;;;;;;;;5014294;28;19922;-93
2023/07/18 00:30:14;;;;;;;;;;;;;;;;;;4980726;28;19985;-93
2023/07/18 00:32:42;;;;;;;;;;;;;;;;;;4980580;28;19925;-94
2023/07/18 00:35:08;;;;;;;;;;;;;;;;;;4997046;28;19976;-95
2023/07/18 00:37:34;;;;;;;;;;;;;;;;;;5014132;28;19933;-93
2023/07/18 00:40:00;;;;;;;;;;;;;;;;;;4996512;28;19947;-93
2023/07/18 00:42:26;;;;;;;;;;;;;;;;;;5014223;28;20012;-93
2023/07/18 00:44:51;;;;;;;;;;;;;;;;;;5013641;28;19921;-93
2023/07/18 00:47:17;;;;;;;;;;;;;;;;;;4996029;28;19926;-92
2023/07/18 00:49:43;;;;;;;;;;;;;;;;;;4980021;28;19921;-91
2023/07/18 00:52:10;;;;;;;;;;;;;;;;;;4980125;28;20072;-91
2023/07/18 00:54:36;;;;;;;;;;;;;;;;;;4996248;28;19976;-92
2023/07/18 00:57:02;;;;;;;;;;;;;;;;;;4995746;28;20023;-92
2023/07/18 00:59:28;;;;;;;;;;;;;;;;;;5013643;28;19925;-91
2023/07/18 01:01:54;;;;;;;;;;;;;;;;;;4995571;28;19951;-91
2023/07/18 01:04:20;;;;;;;;;;;;;;;;;;4995084;28;19969;-92
2023/07/18 01:06:46;;;;;;;;;;;;;;;;;;4979433;28;19976;-90
2023/07/18 01:09:12;;;;;;;;;;;;;;;;;;4995710;28;20035;-92
2023/07/18 01:11:38;;;;;;;;;;;;;;;;;;4996203;28;19976;-92
2023/07/18 01:14:04;;;;;;;;;;;;;;;;;;5013307;28;20316;-92
2023/07/18 01:16:29;;;;;;;;;;;;;;;;;;4979352;28;19979;-91
2023/07/18 01:18:55;;;;;;;;;;;;;;;;;;4995493;28;19922;-91
2023/07/18 01:21:21;;;;;;;;;;;;;;;;;;4995526;28;19921;-91
2023/07/18 01:23:47;;;;;;;;;;;;;;;;;;4979317;28;20013;-92
2023/07/18 01:26:13;;;;;;;;;;;;;;;;;;4979686;28;19968;-91
2023/07/18 01:28:39;;;;;;;;;;;;;;;;;;4996031;28;19921;-92
2023/07/18 01:31:05;;;;;;;;;;;;;;;;;;5013122;28;20016;-92
2023/07/18 01:33:31;;;;;;;;;;;;;;;;;;4996134;28;19921;-93
2023/07/18 01:35:57;;;;;;;;;;;;;;;;;;5013146;28;19926;-92
2023/07/18 01:38:29;;;;;;;;;;;;;;;;;;5013577;28;20016;-93
2023/07/18 01:40:55;;;;;;;;;;;;;;;;;;4995990;28;20378;-92
2023/07/18 01:43:22;;;;;;;;;;;;;;;;;;4995917;28;20028;-92
2023/07/18 01:45:48;;;;;;;;;;;;;;;;;;5013179;28;19922;-91
2023/07/18 01:48:14;;;;;;;;;;;;;;;;;;4994979;28;20052;-92
2023/07/18 01:50:40;;;;;;;;;;;;;;;;;;4996091;28;19925;-92
2023/07/18 01:53:06;;;;;;;;;;;;;;;;;;4995535;28;20368;-92
2023/07/18 01:55:32;;;;;;;;;;;;;;;;;;4979585;28;20012;-93
2023/07/18 01:57:58;;;;;;;;;;;;;;;;;;4979134;28;20012;-93
2023/07/18 02:00:24;;;;;;;;;;;;;;;;;;4995637;28;20012;-91
2023/07/18 02:02:50;;;;;;;;;;;;;;;;;;4995397;28;19956;-92
2023/07/18 02:05:16;;;;;;;;;;;;;;;;;;4979161;28;19921;-92
2023/07/18 02:07:42;;;;;;;;;;;;;;;;;;4995705;28;19933;-92
2023/07/18 02:10:08;;;;;;;;;;;;;;;;;;4995363;28;19921;-92
2023/07/18 02:12:34;;;;;;;;;;;;;;;;;;5013092;28;19922;-93
2023/07/18 02:15:01;;;;;;;;;;;;;;;;;;5013614;28;19925;-93
2023/07/18 02:17:27;;;;;;;;;;;;;;;;;;4982772;28;19940;-92
2023/07/18 02:19:53;;;;;;;;;;;;;;;;;;4983455;28;20332;-90
2023/07/18 02:22:21;;;;;;;;;;;;;;;;;;4982540;28;19929;-92
2023/07/18 02:24:48;;;;;;;;;;;;;;;;;;4982497;28;19974;-93
2023/07/18 02:27:14;;;;;;;;;;;;;;;;;;4999300;28;19960;-93
2023/07/18 02:29:40;;;;;;;;;;;;;;;;;;4998860;28;20396;-93
2023/07/18 02:32:05;;;;;;;;;;;;;;;;;;4982403;28;19921;-92
2023/07/18 02:34:32;;;;;;;;;;;;;;;;;;4998798;28;19975;-91
2023/07/18 02:36:58;;;;;;;;;;;;;;;;;;4998750;28;20025;-92
2023/07/18 02:39:24;;;;;;;;;;;;;;;;;;4998575;28;19976;-93
2023/07/18 02:41:50;;;;;;;;;;;;;;;;;;5016187;28;20006;-92
2023/07/18 02:44:17;;;;;;;;;;;;;;;;;;4982299;28;19928;-93
2023/07/18 02:46:43;;;;;;;;;;;;;;;;;;4982226;28;19931;-92
2023/07/18 02:49:09;;;;;;;;;;;;;;;;;;4982268;28;20168;-91
2023/07/18 02:51:35;;;;;;;;;;;;;;;;;;4998193;28;19921;-93
2023/07/18 02:54:02;;;;;;;;;;;;;;;;;;4998516;28;20262;-92
2023/07/18 02:56:29;;;;;;;;;;;;;;;;;;4997991;28;20328;-92
2023/07/18 02:58:56;;;;;;;;;;;;;;;;;;4998175;28;19922;-93
2023/07/18 03:01:22;;;;;;;;;;;;;;;;;;4998330;28;19921;-93
2023/07/18 03:03:48;;;;;;;;;;;;;;;;;;4998207;28;19922;-93
2023/07/18 03:06:15;;;;;;;;;;;;;;;;;;4998702;28;19922;-93
2023/07/18 03:08:41;;;;;;;;;;;;;;;;;;5016546;28;19929;-94
2023/07/18 03:11:07;;;;;;;;;;;;;;;;;;4983166;28;19928;-94
2023/07/18 03:13:33;;;;;;;;;;;;;;;;;;4982172;28;19945;-95
2023/07/18 03:15:59;;;;;;;;;;;;;;;;;;4981910;28;19926;-93
2023/07/18 03:18:25;;;;;;;;;;;;;;;;;;5015682;28;19921;-94
2023/07/18 03:20:51;;;;;;;;;;;;;;;;;;4981720;28;19922;-93
2023/07/18 03:23:17;;;;;;;;;;;;;;;;;;4998032;28;20011;-93
2023/07/18 03:25:43;;;;;;;;;;;;;;;;;;4998742;28;19929;-94
2023/07/18 03:28:09;;;;;;;;;;;;;;;;;;4997270;28;20403;-95
2023/07/18 03:30:36;;;;;;;;;;;;;;;;;;4998831;28;19956;-95
2023/07/18 03:33:04;;;;;;;;;;;;;;;;;;4998631;28;19964;-93
2023/07/18 03:35:31;;;;;;;;;;;;;;;;;;4982317;28;19932;-94
2023/07/18 03:37:57;;;;;;;;;;;;;;;;;;4998376;28;20357;-93
2023/07/18 03:40:22;;;;;;;;;;;;;;;;;;4998337;28;19926;-94
2023/07/18 03:42:48;;;;;;;;;;;;;;;;;;4997826;28;19921;-93
2023/07/18 03:45:14;;;;;;;;;;;;;;;;;;4981160;28;19922;-93
2023/07/18 03:47:40;;;;;;;;;;;;;;;;;;4997179;28;20024;-93
2023/07/18 03:50:06;;;;;;;;;;;;;;;;;;5015485;28;19965;-93
2023/07/18 03:52:32;;;;;;;;;;;;;;;;;;5014961;28;20107;-92
2023/07/18 03:54:58;;;;;;;;;;;;;;;;;;4997227;28;19983;-92
2023/07/18 03:57:27;;;;;;;;;;;;;;;;;;4980748;28;20023;-92
2023/07/18 03:59:53;;;;;;;;;;;;;;;;;;4997391;28;19922;-92
2023/07/18 04:02:19;;;;;;;;;;;;;;;;;;4980908;28;19943;-93
2023/07/18 04:04:45;;;;;;;;;;;;;;;;;;4980807;28;19921;-93
2023/07/18 04:07:10;;;;;;;;;;;;;;;;;;4996824;28;19931;-93
2023/07/18 04:09:37;;;;;;;;;;;;;;;;;;4981432;28;19922;-93
2023/07/18 04:12:03;;;;;;;;;;;;;;;;;;4997182;28;19993;-93
2023/07/18 04:14:29;;;;;;;;;;;;;;;;;;4997242;28;19952;-93
2023/07/18 04:16:55;;;;;;;;;;;;;;;;;;4996910;28;19926;-93
2023/07/18 04:19:21;;;;;;;;;;;;;;;;;;4980874;28;19925;-93
2023/07/18 04:21:46;;;;;;;;;;;;;;;;;;4980551;28;19921;-94
2023/07/18 04:24:12;;;;;;;;;;;;;;;;;;4980900;28;19927;-94
2023/07/18 04:26:38;;;;;;;;;;;;;;;;;;4980407;28;19991;-92
2023/07/18 04:29:04;;;;;;;;;;;;;;;;;;4996730;28;20270;-92
2023/07/18 04:31:30;;;;;;;;;;;;;;;;;;4980503;28;20296;-92
2023/07/18 04:33:56;;;;;;;;;;;;;;;;;;5013673;28;19922;-90
2023/07/18 04:36:22;;;;;;;;;;;;;;;;;;4980012;28;20008;-91
2023/07/18 04:38:48;;;;;;;;;;;;;;;;;;5012988;28;20012;-91
2023/07/18 04:41:14;;;;;;;;;;;;;;;;;;5014107;28;20001;-91
2023/07/18 04:43:40;;;;;;;;;;;;;;;;;;4996139;28;19921;-92
2023/07/18 04:46:07;;;;;;;;;;;;;;;;;;4996143;28;19929;-92
2023/07/18 04:48:33;;;;;;;;;;;;;;;;;;4979717;28;19926;-92
2023/07/18 04:50:59;;;;;;;;;;;;;;;;;;4995948;28;19921;-92
2023/07/18 04:53:26;;;;;;;;;;;;;;;;;;4979827;28;19921;-91
2023/07/18 04:55:52;;;;;;;;;;;;;;;;;;4979821;28;19933;-91
2023/07/18 04:58:19;;;;;;;;;;;;;;;;;;4996123;28;19921;-91
2023/07/18 05:00:45;;;;;;;;;;;;;;;;;;4996028;28;19929;-92
2023/07/18 05:03:11;;;;;;;;;;;;;;;;;;5013176;28;19925;-92
2023/07/18 05:05:37;;;;;;;;;;;;;;;;;;4996057;28;20373;-92
2023/07/18 05:08:03;;;;;;;;;;;;;;;;;;4980059;28;19945;-94
2023/07/18 05:10:29;;;;;;;;;;;;;;;;;;4996533;28;19961;-93
2023/07/18 05:12:55;;;;;;;;;;;;;;;;;;5013345;28;19928;-93
2023/07/18 05:15:21;;;;;;;;;;;;;;;;;;4980351;28;19972;-94
2023/07/18 05:17:47;;;;;;;;;;;;;;;;;;4995853;28;19925;-92
2023/07/18 05:20:13;;;;;;;;;;;;;;;;;;4995879;28;20218;-93
2023/07/18 05:22:39;;;;;;;;;;;;;;;;;;4979372;28;19925;-94
2023/07/18 05:25:05;;;;;;;;;;;;;;;;;;4978939;28;19928;-91
2023/07/18 05:27:31;;;;;;;;;;;;;;;;;;4979439;28;20050;-92
2023/07/18 05:29:57;;;;;;;;;;;;;;;;;;4979350;28;19921;-92
2023/07/18 05:32:23;;;;;;;;;;;;;;;;;;4979447;28;19928;-92
2023/07/18 05:34:52;;;;;;;;;;;;;;;;;;4995390;28;20289;-92
2023/07/18 05:37:18;;;;;;;;;;;;;;;;;;4995326;28;20336;-92
2023/07/18 05:39:44;;;;;;;;;;;;;;;;;;4995516;28;19922;-91
2023/07/18 05:42:10;;;;;;;;;;;;;;;;;;4979151;28;19921;-91
2023/07/18 05:44:36;;;;;;;;;;;;;;;;;;4978630;28;19972;-90
2023/07/18 05:47:01;;;;;;;;;;;;;;;;;;4995077;28;20403;-90
2023/07/18 05:49:27;;;;;;;;;;;;;;;;;;4994779;28;20022;-90
2023/07/18 05:51:53;;;;;;;;;;;;;;;;;;4998476;28;19928;-91
2023/07/18 05:54:19;;;;;;;;;;;;;;;;;;4982426;28;19922;-91
2023/07/18 05:56:45;;;;;;;;;;;;;;;;;;5016107;28;20332;-90
2023/07/18 05:59:11;;;;;;;;;;;;;;;;;;5016242;28;20296;-90
2023/07/18 06:01:37;;;;;;;;;;;;;;;;;;4982197;28;20285;-91
2023/07/18 06:04:03;;;;;;;;;;;;;;;;;;4998336;28;19925;-91
2023/07/18 06:06:29;;;;;;;;;;;;;;;;;;4998431;28;19976;-91
2023/07/18 06:08:55;;;;;;;;;;;;;;;;;;4982288;28;19975;-90
2023/07/18 06:11:21;;;;;;;;;;;;;;;;;;4981914;28;19929;-90
2023/07/18 06:13:48;;;;;;;;;;;;;;;;;;4997975;28;19921;-90
2023/07/18 06:16:14;;;;;;;;;;;;;;;;;;4981697;28;20340;-91
2023/07/18 06:18:43;;;;;;;;;;;;;;;;;;5015286;28;19929;-90
2023/07/18 06:21:09;;;;;;;;;;;;;;;;;;4981692;28;20384;-90
2023/07/18 06:23:35;;;;;;;;;;;;;;;;;;4981750;28;19922;-90
2023/07/18 06:26:01;;;;;;;;;;;;;;;;;;4981594;28;19971;-90
2023/07/18 06:28:27;;;;;;;;;;;;;;;;;;4997730;28;20019;-89
2023/07/18 06:30:53;;;;;;;;;;;;;;;;;;4981689;28;19976;-90
2023/07/18 06:33:19;;;;;;;;;;;;;;;;;;4981990;28;19921;-90
2023/07/18 06:35:45;;;;;;;;;;;;;;;;;;5015641;28;19932;-90
2023/07/18 06:38:13;;;;;;;;;;;;;;;;;;4997528;28;19928;-90
2023/07/18 06:40:39;;;;;;;;;;;;;;;;;;4997751;28;19980;-90
2023/07/18 06:43:05;;;;;;;;;;;;;;;;;;4981266;28;19922;-91
2023/07/18 06:45:32;;;;;;;;;;;;;;;;;;4997556;28;20281;-90
2023/07/18 06:47:58;;;;;;;;;;;;;;;;;;4981251;28;19976;-91
2023/07/18 06:50:24;;;;;;;;;;;;;;;;;;4981442;28;19940;-90
2023/07/18 06:52:51;;;;;;;;;;;;;;;;;;4997547;28;19925;-91
2023/07/18 06:55:17;;;;;;;;;;;;;;;;;;5014109;28;20015;-91
2023/07/18 06:57:43;;;;;;;;;;;;;;;;;;4997996;28;20012;-91
2023/07/18 07:00:11;;;;;;;;;;;;;;;;;;4997245;28;20373;-91
2023/07/18 07:02:37;;;;;;;;;;;;;;;;;;4996714;28;19975;-90
2023/07/18 07:05:04;;;;;;;;;;;;;;;;;;5015220;28;19925;-89
2023/07/18 07:07:30;;;;;;;;;;;;;;;;;;4997534;28;19922;-90
2023/07/18 07:09:56;;;;;;;;;;;;;;;;;;4997418;28;19922;-90
2023/07/18 07:12:22;;;;;;;;;;;;;;;;;;4996987;28;19921;-91
2023/07/18 07:14:48;;;;;;;;;;;;;;;;;;4980570;28;19964;-92
2023/07/18 07:17:13;;;;;;;;;;;;;;;;;;4997161;28;20034;-92
2023/07/18 07:19:39;;;;;;;;;;;;;;;;;;4981262;28;19922;-91
2023/07/18 07:22:05;;;;;;;;;;;;;;;;;;4997264;28;19921;-91
2023/07/18 07:24:31;;;;;;;;;;;;;;;;;;4980908;28;20004;-91
2023/07/18 07:26:57;;;;;;;;;;;;;;;;;;4996934;28;19988;-91
2023/07/18 07:29:23;;;;;;;;;;;;;;;;;;4996409;28;20407;-91
2023/07/18 07:31:49;;;;;;;;;;;;;;;;;;4996548;28;19922;-90
2023/07/18 07:34:15;;;;;;;;;;;;;;;;;;5013877;28;19922;-91
2023/07/18 07:36:41;;;;;;;;;;;;;;;;;;5014331;28;19925;-92
2023/07/18 07:39:07;;;;;;;;;;;;;;;;;;4980955;28;19921;-92
2023/07/18 07:41:33;;;;;;;;;;;;;;;;;;4980907;28;20013;-93
2023/07/18 07:43:59;;;;;;;;;;;;;;;;;;4997561;28;19929;-90
2023/07/18 07:46:25;;;;;;;;;;;;;;;;;;4996071;28;19925;-90
2023/07/18 07:48:51;;;;;;;;;;;;;;;;;;4980422;28;20011;-90
2023/07/18 07:51:17;;;;;;;;;;;;;;;;;;4996490;28;20004;-92
2023/07/18 07:53:43;;;;;;;;;;;;;;;;;;4980979;28;20007;-91
2023/07/18 07:56:09;;;;;;;;;;;;;;;;;;4980231;28;19973;-92
2023/07/18 07:58:36;;;;;;;;;;;;;;;;;;4980094;28;19925;-91
2023/07/18 08:01:02;;;;;;;;;;;;;;;;;;4996580;28;19927;-92
2023/07/18 08:03:28;;;;;;;;;;;;;;;;;;4980405;28;20016;-92
2023/07/18 08:05:54;;;;;;;;;;;;;;;;;;4980273;28;19921;-92
2023/07/18 08:08:20;;;;;;;;;;;;;;;;;;4996712;28;19932;-91
2023/07/18 08:10:46;;;;;;;;;;;;;;;;;;4996575;28;19922;-92
2023/07/18 08:13:16;;;;;;;;;;;;;;;;;;4996195;28;19922;-90
2023/07/18 08:15:42;;;;;;;;;;;;;;;;;;4995995;28;19928;-90
2023/07/18 08:18:08;;;;;;;;;;;;;;;;;;5013950;28;19922;-91
2023/07/18 08:20:35;;;;;;;;;;;;;;;;;;4998715;28;19921;-91
2023/07/18 08:23:01;;;;;;;;;;;;;;;;;;4981784;28;19934;-90
2023/07/18 08:25:27;;;;;;;;;;;;;;;;;;4981167;28;20318;-91
2023/07/18 08:27:53;;;;;;;;;;;;;;;;;;4996672;28;19978;-91
2023/07/18 08:30:19;;;;;;;;;;;;;;;;;;4980533;28;19928;-90
2023/07/18 08:32:45;;;;;;;;;;;;;;;;;;4996537;28;19929;-90
2023/07/18 08:35:11;;;;;;;;;;;;;;;;;;4996683;28;19968;-90
2023/07/18 08:37:39;;;;;;;;;;;;;;;;;;4997175;28;20285;-91
2023/07/18 08:40:05;;;;;;;;;;;;;;;;;;4982386;28;19932;-92
2023/07/18 08:42:32;;;;;;;;;;;;;;;;;;4997740;28;20015;-90
2023/07/18 08:44:57;;;;;;;;;;;;;;;;;;4984769;28;19922;-92
2023/07/18 08:47:23;;;;;;;;;;;;;;;;;;5021538;28;19931;-93
2023/07/18 08:49:49;;;;;;;;;;;;;;;;;;4998692;28;19921;-92
2023/07/18 08:52:15;;;;;;;;;;;;;;;;;;4985765;28;20351;-93
2023/07/18 08:54:41;;;;;;;;;;;;;;;;;;4997055;28;20281;-91
2023/07/18 08:57:07;;;;;;;;;;;;;;;;;;5013494;28;20289;-92
2023/07/18 08:59:33;;;;;;;;;;;;;;;;;;4979614;28;19976;-91
2023/07/18 09:01:59;;;;;;;;;;;;;;;;;;4995207;28;20020;-92
2023/07/18 09:04:25;;;;;;;;;;;;;;;;;;4995456;28;20251;-92
2023/07/18 09:06:51;;;;;;;;;;;;;;;;;;4978709;28;20293;-92
2023/07/18 09:09:17;;;;;;;;;;;;;;;;;;4979652;28;19921;-92
2023/07/18 09:11:43;;;;;;;;;;;;;;;;;;4979141;28;19929;-93
2023/07/18 09:14:09;;;;;;;;;;;;;;;;;;4979251;28;20369;-92
2023/07/18 09:16:35;;;;;;;;;;;;;;;;;;4995376;28;19933;-93
2023/07/18 09:19:01;;;;;;;;;;;;;;;;;;4979396;28;19976;-92
2023/07/18 09:21:27;;;;;;;;;;;;;;;;;;4978802;28;20059;-92
2023/07/18 09:23:53;;;;;;;;;;;;;;;;;;4978454;28;19921;-91
2023/07/18 09:26:19;;;;;;;;;;;;;;;;;;5000777;28;19921;-92
2023/07/18 09:28:45;;;;;;;;;;;;;;;;;;4988832;28;20160;-92
2023/07/18 09:31:11;;;;;;;;;;;;;;;;;;4986736;28;19932;-93
2023/07/18 09:33:37;;;;;;;;;;;;;;;;;;5001792;28;19929;-91
2023/07/18 09:36:03;;;;;;;;;;;;;;;;;;4998593;28;19925;-93
2023/07/18 09:38:29;;;;;;;;;;;;;;;;;;5002399;28;19979;-92
2023/07/18 09:40:55;;;;;;;;;;;;;;;;;;4985728;28;19925;-91
2023/07/18 09:43:20;;;;;;;;;;;;;;;;;;4984738;28;20214;-91
2023/07/18 09:45:49;;;;;;;;;;;;;;;;;;5001430;28;20288;-90
2023/07/18 09:48:15;;;;;;;;;;;;;;;;;;5018305;28;19925;-91
2023/07/18 09:50:41;;;;;;;;;;;;;;;;;;5018678;28;20352;-91
2023/07/18 09:53:07;;;;;;;;;;;;;;;;;;5001435;28;19921;-90
2023/07/18 09:55:34;;;;;;;;;;;;;;;;;;5001855;28;19925;-91
2023/07/18 09:58:00;;;;;;;;;;;;;;;;;;4984895;28;20040;-93
2023/07/18 10:00:26;;;;;;;;;;;;;;;;;;5001675;28;20545;-92
2023/07/18 10:02:55;;;;;;;;;;;;;;;;;;4984771;28;19922;-93
2023/07/18 10:05:24;;;;;;;;;;;;;;;;;;4985927;28;19922;-90
2023/07/18 10:07:50;;;;;;;;;;;;;;;;;;5000447;28;19932;-90
2023/07/18 10:10:16;;;;;;;;;;;;;;;;;;4984387;28;19922;-90
2023/07/18 10:12:42;;;;;;;;;;;;;;;;;;5018442;28;19922;-90
2023/07/18 10:15:07;;;;;;;;;;;;;;;;;;4985161;28;19943;-89
2023/07/18 10:17:34;;;;;;;;;;;;;;;;;;5000389;28;19932;-89
2023/07/18 10:19:59;;;;;;;;;;;;;;;;;;5018154;28;19922;-90
2023/07/18 10:22:26;;;;;;;;;;;;;;;;;;5000574;28;20446;-90
2023/07/18 10:24:52;;;;;;;;;;;;;;;;;;4984177;28;19921;-90
2023/07/18 10:27:18;;;;;;;;;;;;;;;;;;5000382;28;19921;-90
2023/07/18 10:29:46;;;;;;;;;;;;;;;;;;5000490;28;19944;-89
2023/07/18 10:32:12;;;;;;;;;;;;;;;;;;4984409;28;19987;-92
2023/07/18 10:34:41;;;;;;;;;;;;;;;;;;5003907;28;19940;-96
2023/07/18 10:37:10;;;;;;;;;;;;;;;;;;4999897;28;19933;-93
2023/07/18 10:39:38;;;;;;;;;;;;;;;;;;4983672;28;19922;-94
2023/07/18 10:42:20;;;;;;;;;;;;;;;;;;4984501;28;19925;-93
2023/07/18 10:44:46;;;;;;;;;;;;;;;;;;4982777;28;19921;-94
2023/07/18 10:47:12;;;;;;;;;;;;;;;;;;4984593;28;20203;-92
2023/07/18 10:49:38;;;;;;;;;;;;;;;;;;4982063;28;20127;-93
2023/07/18 10:52:04;;;;;;;;;;;;;;;;;;4981790;28;20455;-91
2023/07/18 10:54:30;;;;;;;;;;;;;;;;;;5015499;28;19929;-92
2023/07/18 10:56:56;;;;;;;;;;;;;;;;;;4980795;28;19977;-93
2023/07/18 10:59:24;;;;;;;;;;;;;;;;;;4999345;28;19922;-92
2023/07/18 11:01:50;;;;;;;;;;;;;;;;;;4981366;28;19929;-88
2023/07/18 11:04:16;;;;;;;;;;;;;;;;;;4997592;28;19987;-89
2023/07/18 11:06:42;;;;;;;;;;;;;;;;;;4997481;28;19926;-88
2023/07/18 11:09:08;;;;;;;;;;;;;;;;;;4997562;28;20439;-90
2023/07/18 11:11:34;;;;;;;;;;;;;;;;;;4997364;28;20079;-89
2023/07/18 11:14:02;;;;;;;;;;;;;;;;;;4997247;28;19996;-89
2023/07/18 11:16:28;;;;;;;;;;;;;;;;;;4980596;28;20183;-89
2023/07/18 11:18:54;;;;;;;;;;;;;;;;;;4997171;28;19932;-89
2023/07/18 11:21:20;;;;;;;;;;;;;;;;;;4996847;28;20436;-89
2023/07/18 11:23:46;;;;;;;;;;;;;;;;;;4996888;28;19922;-89
2023/07/18 11:26:12;;;;;;;;;;;;;;;;;;4996991;28;20286;-90
2023/07/18 11:28:38;;;;;;;;;;;;;;;;;;4980945;28;19976;-89
2023/07/18 11:31:04;;;;;;;;;;;;;;;;;;4996705;28;20288;-89
2023/07/18 11:33:30;;;;;;;;;;;;;;;;;;4996821;28;19922;-89
2023/07/18 11:35:56;;;;;;;;;;;;;;;;;;4996833;28;19928;-89
2023/07/18 11:38:24;;;;;;;;;;;;;;;;;;4996820;28;19968;-89
2023/07/18 11:40:50;;;;;;;;;;;;;;;;;;4980518;28;19921;-89
2023/07/18 11:43:16;;;;;;;;;;;;;;;;;;5014260;28;19929;-89
2023/07/18 11:45:43;;;;;;;;;;;;;;;;;;4980204;28;19921;-88
2023/07/18 11:48:09;;;;;;;;;;;;;;;;;;5013504;28;19933;-89
2023/07/18 11:50:35;;;;;;;;;;;;;;;;;;4980686;28;19921;-89
2023/07/18 11:53:01;;;;;;;;;;;;;;;;;;4996386;28;20355;-89
2023/07/18 11:55:27;;;;;;;;;;;;;;;;;;4996382;28;19921;-89
2023/07/18 11:57:53;;;;;;;;;;;;;;;;;;4996094;28;19925;-89
2023/07/18 12:00:19;;;;;;;;;;;;;;;;;;5013737;28;19949;-89
2023/07/18 12:02:45;;;;;;;;;;;;;;;;;;4979686;28;20361;-89
2023/07/18 12:05:11;;;;;;;;;;;;;;;;;;4996291;28;19932;-89
2023/07/18 12:07:37;;;;;;;;;;;;;;;;;;4996380;28;20441;-89
2023/07/18 12:10:06;;;;;;;;;;;;;;;;;;4996073;28;19997;-89
2023/07/18 12:12:32;;;;;;;;;;;;;;;;;;4995933;28;19921;-88
2023/07/18 12:14:58;;;;;;;;;;;;;;;;;;4996306;28;20341;-89
2023/07/18 12:17:24;;;;;;;;;;;;;;;;;;5016021;28;19926;-89
2023/07/18 12:19:50;;;;;;;;;;;;;;;;;;4998762;28;19983;-89
2023/07/18 12:22:17;;;;;;;;;;;;;;;;;;4998285;28;19943;-89
2023/07/18 12:24:43;;;;;;;;;;;;;;;;;;4998627;28;20284;-89
2023/07/18 12:27:09;;;;;;;;;;;;;;;;;;4998739;28;19929;-89
2023/07/18 12:29:36;;;;;;;;;;;;;;;;;;4998658;28;19921;-89
2023/07/18 12:32:02;;;;;;;;;;;;;;;;;;4998646;28;20361;-88
2023/07/18 12:34:27;;;;;;;;;;;;;;;;;;4997063;28;19928;-89
2023/07/18 12:36:53;;;;;;;;;;;;;;;;;;4995318;28;19925;-89
2023/07/18 12:39:19;;;;;;;;;;;;;;;;;;4995433;28;20274;-89
2023/07/18 12:41:45;;;;;;;;;;;;;;;;;;4995276;28;19921;-89
2023/07/18 12:44:11;;;;;;;;;;;;;;;;;;4979306;28;19921;-89
2023/07/18 12:46:37;;;;;;;;;;;;;;;;;;4994997;28;19934;-89
2023/07/18 12:49:03;;;;;;;;;;;;;;;;;;4995412;28;20332;-89
2023/07/18 12:51:29;;;;;;;;;;;;;;;;;;4979001;28;20377;-89
2023/07/18 12:53:55;;;;;;;;;;;;;;;;;;4995296;28;19922;-89
2023/07/18 12:56:21;;;;;;;;;;;;;;;;;;4995482;28;19936;-89
2023/07/18 12:58:47;;;;;;;;;;;;;;;;;;4995494;28;19937;-88
2023/07/18 13:01:13;;;;;;;;;;;;;;;;;;4994859;28;19925;-89
2023/07/18 13:03:39;;;;;;;;;;;;;;;;;;4979409;28;20301;-88
2023/07/18 13:06:06;;;;;;;;;;;;;;;;;;4995353;28;19921;-89
2023/07/18 13:08:32;;;;;;;;;;;;;;;;;;4979018;28;19976;-89
2023/07/18 13:10:58;;;;;;;;;;;;;;;;;;4979117;28;19964;-89
2023/07/18 13:13:24;;;;;;;;;;;;;;;;;;5012903;28;19928;-89
2023/07/18 13:15:50;;;;;;;;;;;;;;;;;;4995012;28;19964;-89
2023/07/18 13:18:16;;;;;;;;;;;;;;;;;;4994477;28;20033;-88
2023/07/18 13:20:41;;;;;;;;;;;;;;;;;;5012771;28;19948;-89
2023/07/18 13:23:07;;;;;;;;;;;;;;;;;;5012320;28;19980;-89
2023/07/18 13:25:34;;;;;;;;;;;;;;;;;;5012336;28;20368;-89
2023/07/18 13:27:59;;;;;;;;;;;;;;;;;;5012403;28;19921;-89
2023/07/18 13:30:25;;;;;;;;;;;;;;;;;;5012381;28;20348;-89
2023/07/18 13:32:51;;;;;;;;;;;;;;;;;;4978201;28;19921;-89
2023/07/18 13:35:17;;;;;;;;;;;;;;;;;;4994316;28;20016;-89
2023/07/18 13:37:43;;;;;;;;;;;;;;;;;;5012177;28;19999;-89
2023/07/18 13:40:09;;;;;;;;;;;;;;;;;;5012120;28;19999;-89
2023/07/18 13:42:35;;;;;;;;;;;;;;;;;;4994547;28;19948;-89
2023/07/18 13:45:02;;;;;;;;;;;;;;;;;;4994719;28;20292;-90
2023/07/18 13:47:28;;;;;;;;;;;;;;;;;;4994044;28;19926;-88
2023/07/18 13:49:54;;;;;;;;;;;;;;;;;;5012261;28;19936;-89
2023/07/18 13:52:20;;;;;;;;;;;;;;;;;;4994548;28;20284;-90
2023/07/18 13:54:47;;;;;;;;;;;;;;;;;;4978519;28;19922;-89
2023/07/18 13:57:13;;;;;;;;;;;;;;;;;;4977859;28;20349;-89
2023/07/18 13:59:39;;;;;;;;;;;;;;;;;;4978357;28;19975;-91
2023/07/18 14:02:06;;;;;;;;;;;;;;;;;;4995093;28;20020;-92
2023/07/18 14:04:32;;;;;;;;;;;;;;;;;;4997381;28;20008;-93
2023/07/18 14:06:58;;;;;;;;;;;;;;;;;;4977339;28;20357;-93
2023/07/18 14:09:24;;;;;;;;;;;;;;;;;;4995376;28;20318;-92
2023/07/18 14:11:50;;;;;;;;;;;;;;;;;;4996328;28;20518;-92
2023/07/18 14:14:16;;;;;;;;;;;;;;;;;;4998854;28;19930;-92
2023/07/18 14:16:42;;;;;;;;;;;;;;;;;;4982343;28;20410;-92
2023/07/18 14:19:08;;;;;;;;;;;;;;;;;;5016320;28;20432;-92
2023/07/18 14:21:34;;;;;;;;;;;;;;;;;;4982333;28;19922;-92
2023/07/18 14:24:00;;;;;;;;;;;;;;;;;;4998680;28;19976;-93
2023/07/18 14:26:26;;;;;;;;;;;;;;;;;;4982349;28;19921;-92
2023/07/18 14:28:52;;;;;;;;;;;;;;;;;;5016208;28;20278;-92
2023/07/18 14:31:18;;;;;;;;;;;;;;;;;;4998512;28;19921;-92
2023/07/18 14:33:44;;;;;;;;;;;;;;;;;;5015709;28;19979;-91
2023/07/18 14:36:10;;;;;;;;;;;;;;;;;;4981810;28;20246;-91
2023/07/18 14:38:36;;;;;;;;;;;;;;;;;;4997618;28;19968;-91
2023/07/18 14:41:02;;;;;;;;;;;;;;;;;;4998210;28;19921;-92
2023/07/18 14:43:28;;;;;;;;;;;;;;;;;;4997913;28;19985;-92
2023/07/18 14:45:54;;;;;;;;;;;;;;;;;;4998419;28;20439;-95
2023/07/18 14:48:23;;;;;;;;;;;;;;;;;;4985414;28;19993;-96
2023/07/18 14:50:49;;;;;;;;;;;;;;;;;;4984273;28;20412;-94
2023/07/18 14:53:15;;;;;;;;;;;;;;;;;;4983498;28;19925;-95
2023/07/18 14:55:41;;;;;;;;;;;;;;;;;;5002627;28;20287;-96
2023/07/18 14:58:08;;;;;;;;;;;;;;;;;;5020172;28;19926;-96
2023/07/18 15:00:34;;;;;;;;;;;;;;;;;;4999427;28;19948;-95
2023/07/18 15:03:00;;;;;;;;;;;;;;;;;;4998418;28;20306;-94
2023/07/18 15:05:26;;;;;;;;;;;;;;;;;;4998109;28;20409;-94
2023/07/18 15:07:51;;;;;;;;;;;;;;;;;;5015861;28;20737;-95
2023/07/18 15:10:19;;;;;;;;;;;;;;;;;;4982078;28;19968;-93
2023/07/18 15:12:46;;;;;;;;;;;;;;;;;;4982208;28;19968;-92
2023/07/18 15:15:12;;;;;;;;;;;;;;;;;;4981541;28;19921;-93
2023/07/18 15:17:39;;;;;;;;;;;;;;;;;;4997803;28;20068;-94
2023/07/18 15:20:08;;;;;;;;;;;;;;;;;;4997810;28;20381;-93
2023/07/18 15:22:34;;;;;;;;;;;;;;;;;;4981041;28;20404;-93
2023/07/18 15:25:00;;;;;;;;;;;;;;;;;;4997965;28;20389;-94
2023/07/18 15:27:29;;;;;;;;;;;;;;;;;;4982418;28;19944;-96
2023/07/18 15:29:55;;;;;;;;;;;;;;;;;;4982272;28;19928;-94
2023/07/18 15:32:20;;;;;;;;;;;;;;;;;;4981455;28;20020;-92
2023/07/18 15:34:46;;;;;;;;;;;;;;;;;;5015373;28;19927;-95
2023/07/18 15:37:16;;;;;;;;;;;;;;;;;;4981454;28;19991;-93
2023/07/18 15:39:54;;;;;;;;;;;;;;;;;;4989020;28;19957;-93
2023/07/18 15:42:20;;;;;;;;;;;;;;;;;;5000267;28;19921;-95
2023/07/18 15:44:46;;;;;;;;;;;;;;;;;;4981613;28;20364;-95
2023/07/18 15:47:12;;;;;;;;;;;;;;;;;;4981684;28;19948;-95
2023/07/18 15:49:38;;;;;;;;;;;;;;;;;;4981793;28;20345;-92
2023/07/18 15:52:04;;;;;;;;;;;;;;;;;;5014640;28;20419;-92
2023/07/18 15:54:30;;;;;;;;;;;;;;;;;;5014471;28;20454;-92
2023/07/18 15:56:56;;;;;;;;;;;;;;;;;;4980529;28;19925;-94
2023/07/18 15:59:22;;;;;;;;;;;;;;;;;;5015107;28;19964;-92
2023/07/18 16:01:50;;;;;;;;;;;;;;;;;;4980300;28;20395;-92
2023/07/18 16:04:16;;;;;;;;;;;;;;;;;;4981189;28;20270;-93
2023/07/18 16:06:42;;;;;;;;;;;;;;;;;;4997133;28;19983;-92
2023/07/18 16:09:09;;;;;;;;;;;;;;;;;;5014932;28;20008;-92
2023/07/18 16:11:34;;;;;;;;;;;;;;;;;;5017181;28;19921;-93
2023/07/18 16:14:00;;;;;;;;;;;;;;;;;;4998743;28;19971;-93
2023/07/18 16:16:26;;;;;;;;;;;;;;;;;;5015813;28;19972;-92
2023/07/18 16:18:52;;;;;;;;;;;;;;;;;;4998736;28;19925;-94
2023/07/18 16:21:19;;;;;;;;;;;;;;;;;;4996988;28;19925;-92
2023/07/18 16:23:47;;;;;;;;;;;;;;;;;;4996704;28;19921;-92
2023/07/18 16:26:13;;;;;;;;;;;;;;;;;;4980531;28;19922;-92
2023/07/18 16:28:38;;;;;;;;;;;;;;;;;;4980141;28;20032;-90
2023/07/18 16:31:04;;;;;;;;;;;;;;;;;;5014048;28;19932;-91
2023/07/18 16:33:30;;;;;;;;;;;;;;;;;;4996617;28;19975;-90
2023/07/18 16:35:56;;;;;;;;;;;;;;;;;;4996173;28;19964;-92
2023/07/18 16:38:22;;;;;;;;;;;;;;;;;;4996678;28;20329;-93